Time;durP1;ratioP1;P1;durP2;ratioP2;P2;SDS_P1;SDS_P2;PMS_P1;PMS_P2;Temp;Humidity;BMP_temperature;BMP_pressure;BME280_temperature;BME280_humidity;BME280_pressure;Samples;Min_cycle;Max_cycle;Signal;HPM_P1;HPM_P2
2021/09/15 00:00:22;;;;;;;8.77;7.57;;;14.50;99.90;;;;;;6194539;28;20236;-71
2021/09/15 00:03:26;;;;;;;8.27;7.20;;;14.50;99.90;;;;;;6195778;28;20659;-71
2021/09/15 00:06:28;;;;;;;8.87;7.80;;;14.50;99.90;;;;;;6194755;28;20204;-71
2021/09/15 00:09:31;;;;;;;8.73;7.83;;;14.50;99.90;;;;;;6195991;28;20193;-71
2021/09/15 00:12:33;;;;;;;8.23;7.37;;;14.50;99.90;;;;;;6193782;28;20200;-71
2021/09/15 00:15:37;;;;;;;8.37;7.50;;;14.50;99.90;;;;;;6204608;28;20292;-71
2021/09/15 00:18:39;;;;;;;8.63;7.83;;;14.40;99.90;;;;;;6210483;28;20628;-71
2021/09/15 00:21:42;;;;;;;8.73;7.27;;;14.40;99.90;;;;;;6195527;28;20520;-71
2021/09/15 00:24:44;;;;;;;7.80;7.10;;;14.40;99.90;;;;;;6186350;28;20280;-71
2021/09/15 00:27:46;;;;;;;8.30;7.50;;;14.40;99.90;;;;;;6189655;28;20280;-71
2021/09/15 00:30:49;;;;;;;9.47;8.10;;;14.40;99.90;;;;;;6194070;28;20228;-71
2021/09/15 00:33:52;;;;;;;8.43;7.53;;;14.30;99.90;;;;;;6194435;28;20190;-71
2021/09/15 00:36:54;;;;;;;8.23;7.43;;;14.30;99.90;;;;;;6194129;28;20239;-71
2021/09/15 00:39:57;;;;;;;7.83;7.13;;;14.30;99.90;;;;;;6194073;28;20192;-72
2021/09/15 00:43:00;;;;;;;8.30;7.60;;;14.30;99.90;;;;;;6195167;28;20189;-72
2021/09/15 00:46:02;;;;;;;8.70;7.93;;;14.30;99.90;;;;;;6210559;28;21013;-72
2021/09/15 00:49:05;;;;;;;12.40;9.40;;;14.30;99.90;;;;;;6197515;28;20201;-71
2021/09/15 00:52:08;;;;;;;10.07;9.00;;;14.30;99.90;;;;;;6198927;28;20220;-72
2021/09/15 00:55:10;;;;;;;10.87;8.73;;;14.30;99.90;;;;;;6199913;28;20196;-72
2021/09/15 00:58:13;;;;;;;9.17;8.27;;;14.30;99.90;;;;;;6199777;28;20193;-72
2021/09/15 01:01:18;;;;;;;8.70;7.90;;;14.30;99.90;;;;;;6215001;28;20355;-72
2021/09/15 01:04:22;;;;;;;8.47;7.77;;;14.30;99.90;;;;;;6214759;28;20229;-72
2021/09/15 01:07:27;;;;;;;8.50;7.63;;;14.20;99.90;;;;;;6199695;28;20598;-71
2021/09/15 01:10:31;;;;;;;9.73;8.10;;;14.20;99.90;;;;;;6182464;28;20599;-71
2021/09/15 01:14:04;;;;;;;9.20;8.10;;;14.20;99.90;;;;;;6196038;28;20202;-72
2021/09/15 01:17:25;;;;;;;9.10;8.20;;;14.20;99.90;;;;;;6222208;28;20637;-72
2021/09/15 01:20:56;;;;;;;8.77;7.60;;;14.20;99.90;;;;;;6193767;28;20205;-72
2021/09/15 01:24:18;;;;;;;9.37;7.87;;;14.10;99.90;;;;;;6199544;28;20186;-71
2021/09/15 01:27:40;;;;;;;10.90;8.67;;;14.10;99.90;;;;;;6199078;28;20205;-71
2021/09/15 01:30:59;;;;;;;9.13;8.23;;;14.10;99.90;;;;;;6198003;28;20236;-71
2021/09/15 01:34:02;;;;;;;9.23;8.33;;;14.10;99.90;;;;;;6214402;28;20726;-71
2021/09/15 01:37:07;;;;;;;9.17;8.03;;;14.10;99.90;;;;;;6197783;28;20190;-72
2021/09/15 01:40:13;;;;;;;8.83;8.03;;;14.10;99.90;;;;;;6213973;28;20223;-72
2021/09/15 01:43:16;;;;;;;8.50;7.70;;;14.00;99.90;;;;;;6213571;28;20189;-72
2021/09/15 01:46:19;;;;;;;10.13;9.13;;;14.00;99.90;;;;;;6214003;28;20231;-72
2021/09/15 01:49:21;;;;;;;10.00;9.00;;;14.00;99.90;;;;;;6213820;28;20205;-72
2021/09/15 01:52:23;;;;;;;11.53;9.00;;;14.00;99.90;;;;;;6209187;28;20689;-72
2021/09/15 01:55:29;;;;;;;9.43;8.43;;;14.00;99.90;;;;;;6213664;28;20665;-72
2021/09/15 01:58:43;;;;;;;10.23;8.23;;;14.00;99.90;;;;;;6212113;28;20209;-72
2021/09/15 02:02:24;;;;;;;10.07;8.57;;;13.90;99.90;;;;;;6170768;28;20232;-72
2021/09/15 02:05:31;;;;;;;14.63;9.70;;;13.90;99.90;;;;;;6171331;28;20198;-72
2021/09/15 02:08:45;;;;;;;9.60;8.60;;;13.80;99.90;;;;;;6155285;28;20191;-72
2021/09/15 02:12:08;;;;;;;9.57;8.67;;;13.80;99.90;;;;;;6150695;28;20226;-72
2021/09/15 02:15:12;;;;;;;9.73;8.83;;;13.80;99.90;;;;;;6169824;28;20268;-72
2021/09/15 02:18:18;;;;;;;11.13;8.77;;;13.80;99.90;;;;;;6153468;28;20746;-72
2021/09/15 02:21:44;;;;;;;9.13;8.10;;;13.80;99.90;;;;;;6159625;28;20214;-72
2021/09/15 02:25:15;;;;;;;9.40;8.50;;;13.80;99.90;;;;;;6170202;28;20202;-72
2021/09/15 02:28:26;;;;;;;13.60;8.90;;;13.80;99.90;;;;;;6170877;28;20195;-72
2021/09/15 02:31:54;;;;;;;12.43;9.60;;;13.80;99.90;;;;;;6152756;28;20705;-72
2021/09/15 02:35:15;;;;;;;10.33;9.40;;;13.80;99.90;;;;;;6197772;28;20201;-72
2021/09/15 02:38:44;;;;;;;9.93;8.83;;;13.80;99.90;;;;;;6183969;28;20200;-72
2021/09/15 02:42:06;;;;;;;9.50;8.60;;;13.70;99.90;;;;;;6195900;28;20217;-72
2021/09/15 02:45:25;;;;;;;9.93;8.87;;;13.70;99.90;;;;;;6212543;28;20201;-72
2021/09/15 02:48:46;;;;;;;8.90;8.00;;;13.70;99.90;;;;;;6212408;28;20582;-72
2021/09/15 02:51:59;;;;;;;9.07;8.20;;;13.60;99.90;;;;;;6195971;28;20825;-72
2021/09/15 02:55:12;;;;;;;10.30;9.30;;;13.60;99.90;;;;;;6195877;28;20683;-72
2021/09/15 02:58:15;;;;;;;10.40;8.73;;;13.60;99.90;;;;;;6212202;28;20194;-72
2021/09/15 03:01:25;;;;;;;10.00;9.00;;;13.60;99.90;;;;;;6212484;28;20221;-72
2021/09/15 03:04:31;;;;;;;9.37;8.47;;;13.60;99.90;;;;;;6195548;28;20233;-72
2021/09/15 03:07:40;;;;;;;9.67;8.67;;;13.60;99.90;;;;;;6195943;28;20197;-72
2021/09/15 03:10:42;;;;;;;10.20;9.20;;;13.50;99.90;;;;;;6179341;28;20238;-72
2021/09/15 03:13:46;;;;;;;9.30;8.40;;;13.50;99.90;;;;;;6194585;28;20290;-72
2021/09/15 03:16:51;;;;;;;12.17;9.27;;;13.40;99.90;;;;;;6202070;28;20206;-72
2021/09/15 03:19:53;;;;;;;9.67;8.67;;;13.40;99.90;;;;;;6211935;28;20675;-72
2021/09/15 03:22:55;;;;;;;10.53;9.50;;;13.40;99.90;;;;;;6187442;28;20357;-72
2021/09/15 03:25:58;;;;;;;10.03;9.03;;;13.40;99.90;;;;;;6194441;28;20207;-72
2021/09/15 03:29:00;;;;;;;10.57;9.53;;;13.30;99.90;;;;;;6195321;28;20709;-72
2021/09/15 03:32:06;;;;;;;10.53;9.13;;;13.30;99.90;;;;;;6211611;28;20213;-72
2021/09/15 03:35:09;;;;;;;10.93;9.80;;;13.20;99.90;;;;;;6211448;28;20197;-72
2021/09/15 03:38:11;;;;;;;9.03;8.23;;;13.20;99.90;;;;;;6195044;28;20198;-72
2021/09/15 03:41:14;;;;;;;10.80;9.80;;;13.20;99.90;;;;;;6178811;28;20193;-72
2021/09/15 03:44:17;;;;;;;10.43;9.47;;;13.20;99.90;;;;;;6211134;28;20204;-72
2021/09/15 03:47:20;;;;;;;11.37;9.70;;;13.20;99.90;;;;;;6194769;28;20231;-72
2021/09/15 03:50:23;;;;;;;10.97;9.83;;;13.20;99.90;;;;;;6194717;28;20585;-72
2021/09/15 03:53:26;;;;;;;11.90;9.67;;;13.20;99.90;;;;;;6194667;28;20193;-72
2021/09/15 03:56:28;;;;;;;9.70;8.63;;;13.20;99.90;;;;;;6211347;28;20208;-72
2021/09/15 03:59:30;;;;;;;13.30;10.60;;;13.20;99.90;;;;;;6194563;28;20218;-72
2021/09/15 04:02:36;;;;;;;10.87;9.77;;;13.20;99.90;;;;;;6178444;28;20283;-72
2021/09/15 04:05:39;;;;;;;11.57;10.17;;;13.20;99.90;;;;;;6194523;28;20451;-72
2021/09/15 04:08:42;;;;;;;10.77;9.33;;;13.10;99.90;;;;;;6194696;28;20674;-72
2021/09/15 04:11:44;;;;;;;10.10;9.10;;;13.10;99.90;;;;;;6194251;28;20219;-72
2021/09/15 04:14:46;;;;;;;11.03;10.03;;;13.10;99.90;;;;;;6201645;28;20199;-72
2021/09/15 04:17:49;;;;;;;10.73;9.67;;;13.10;99.90;;;;;;6210948;28;20243;-72
2021/09/15 04:20:52;;;;;;;9.93;8.93;;;13.10;99.90;;;;;;6207308;28;20202;-72
2021/09/15 04:24:06;;;;;;;10.67;9.60;;;13.10;99.90;;;;;;6193665;28;20691;-72
2021/09/15 04:33:52;;;;;;;11.07;9.97;;;13.10;99.90;;;;;;6210677;28;20182;-72
2021/09/15 04:36:55;;;;;;;10.43;9.43;;;13.10;99.90;;;;;;6210410;28;20243;-72
2021/09/15 04:39:57;;;;;;;10.20;9.07;;;13.10;99.90;;;;;;6193753;28;20245;-72
2021/09/15 04:43:00;;;;;;;10.10;9.10;;;13.10;99.90;;;;;;6195396;28;20203;-72
2021/09/15 04:46:03;;;;;;;9.13;8.30;;;13.10;99.90;;;;;;6177943;28;20202;-72
2021/09/15 04:49:05;;;;;;;10.30;9.20;;;13.00;99.90;;;;;;6177898;28;20201;-72
2021/09/15 04:52:10;;;;;;;11.10;9.93;;;13.00;99.90;;;;;;6194142;28;20227;-72
2021/09/15 04:55:12;;;;;;;10.63;9.53;;;13.10;99.90;;;;;;6193477;28;20193;-71
2021/09/15 04:58:16;;;;;;;11.53;10.30;;;13.00;99.90;;;;;;6209635;28;20220;-72
2021/09/15 05:01:22;;;;;;;11.00;9.87;;;13.00;99.90;;;;;;6193167;28;20231;-72
2021/09/15 05:04:25;;;;;;;11.90;10.10;;;13.00;99.90;;;;;;6193319;28;20225;-72
2021/09/15 05:07:53;;;;;;;11.37;10.17;;;13.00;99.90;;;;;;6191353;28;20205;-72
2021/09/15 05:10:56;;;;;;;10.83;9.73;;;13.00;99.90;;;;;;6177314;28;20273;-72
2021/09/15 05:13:59;;;;;;;9.90;9.00;;;13.00;99.90;;;;;;6209621;28;20212;-72
2021/09/15 05:17:02;;;;;;;11.70;10.60;;;13.10;99.90;;;;;;6157698;28;20204;-72
2021/09/15 05:20:05;;;;;;;10.60;9.50;;;13.10;99.90;;;;;;6178693;28;20203;-72
2021/09/15 05:23:09;;;;;;;10.53;9.53;;;13.10;99.90;;;;;;6193012;28;20665;-72
2021/09/15 05:26:11;;;;;;;10.97;9.87;;;13.20;99.90;;;;;;6193111;28;20197;-72
2021/09/15 05:29:14;;;;;;;11.47;9.33;;;13.20;99.90;;;;;;6193116;28;20212;-72
2021/09/15 05:32:17;;;;;;;12.07;10.87;;;13.20;99.90;;;;;;6193130;28;20304;-72
2021/09/15 05:35:19;;;;;;;12.07;10.40;;;13.20;99.90;;;;;;6178273;28;20681;-72
2021/09/15 05:38:22;;;;;;;11.83;10.63;;;13.20;99.90;;;;;;6181189;28;20232;-72
2021/09/15 05:41:43;;;;;;;11.03;9.93;;;13.30;99.90;;;;;;6198993;28;20204;-72
2021/09/15 05:44:46;;;;;;;11.83;9.90;;;13.30;99.90;;;;;;6198350;28;20212;-72
2021/09/15 05:47:49;;;;;;;13.10;11.30;;;13.30;99.90;;;;;;6197315;28;20204;-72
2021/09/15 05:50:51;;;;;;;13.13;11.80;;;13.40;99.90;;;;;;6181389;28;20420;-72
2021/09/15 05:53:55;;;;;;;11.90;10.70;;;13.40;99.90;;;;;;6196812;28;20193;-72
2021/09/15 05:56:58;;;;;;;12.03;10.03;;;13.50;99.90;;;;;;6181029;28;20208;-72
2021/09/15 06:00:02;;;;;;;11.30;10.30;;;13.60;99.90;;;;;;6197315;28;20209;-72
2021/09/15 06:03:15;;;;;;;10.37;9.37;;;13.70;99.90;;;;;;6198222;28;20251;-72
2021/09/15 06:06:29;;;;;;;10.77;9.20;;;13.70;99.90;;;;;;6196870;28;20292;-72
2021/09/15 06:09:37;;;;;;;11.57;10.37;;;13.80;99.90;;;;;;6197451;28;20214;-72
2021/09/15 06:12:40;;;;;;;11.73;10.30;;;13.80;99.90;;;;;;6180568;28;20231;-72
2021/09/15 06:15:42;;;;;;;11.17;10.07;;;13.90;99.90;;;;;;6215496;28;20612;-72
2021/09/15 06:18:45;;;;;;;11.10;10.00;;;13.90;99.90;;;;;;6209786;28;20232;-72
2021/09/15 06:22:08;;;;;;;11.00;9.80;;;14.00;99.90;;;;;;6179621;28;20213;-72
2021/09/15 06:25:33;;;;;;;11.33;10.20;;;14.00;99.90;;;;;;6194462;28;20217;-72
2021/09/15 06:28:35;;;;;;;11.90;10.70;;;14.00;99.90;;;;;;6196329;28;20205;-72
2021/09/15 06:31:39;;;;;;;12.70;11.50;;;14.10;99.90;;;;;;6195965;28;20217;-72
2021/09/15 06:34:42;;;;;;;11.63;10.50;;;14.20;99.90;;;;;;6196133;28;20201;-72
2021/09/15 06:37:44;;;;;;;11.90;10.70;;;14.20;99.90;;;;;;6197497;28;20661;-72
2021/09/15 06:40:47;;;;;;;11.97;10.87;;;14.30;99.90;;;;;;6196173;28;20244;-72
2021/09/15 06:43:49;;;;;;;11.80;10.70;;;14.30;99.90;;;;;;6197043;28;20201;-72
2021/09/15 06:46:51;;;;;;;11.47;10.30;;;14.40;99.90;;;;;;6179437;28;20201;-72
2021/09/15 06:49:54;;;;;;;12.63;11.33;;;14.50;99.90;;;;;;6197151;28;20197;-72
2021/09/15 06:52:56;;;;;;;13.70;12.30;;;14.60;99.90;;;;;;6187583;28;20580;-72
2021/09/15 06:55:59;;;;;;;13.63;11.70;;;14.70;99.90;;;;;;6178644;28;20189;-72
2021/09/15 06:59:03;;;;;;;12.43;11.20;;;14.80;99.90;;;;;;6195561;28;20213;-72
2021/09/15 07:02:06;;;;;;;12.20;11.07;;;15.00;99.90;;;;;;6195399;28;20213;-72
2021/09/15 07:05:08;;;;;;;11.63;10.53;;;15.10;99.90;;;;;;6195376;28;20745;-72
2021/09/15 07:08:10;;;;;;;12.37;11.07;;;15.20;99.90;;;;;;6196704;28;20229;-72
2021/09/15 07:11:13;;;;;;;12.43;10.87;;;15.40;99.90;;;;;;6197015;28;20298;-72
2021/09/15 07:14:15;;;;;;;10.73;9.63;;;15.50;99.90;;;;;;6196684;28;20208;-72
2021/09/15 07:17:17;;;;;;;11.50;9.97;;;15.60;99.90;;;;;;6210350;28;20228;-72
2021/09/15 07:20:20;;;;;;;11.33;10.07;;;15.80;99.90;;;;;;6196269;28;20193;-72
2021/09/15 07:23:22;;;;;;;11.07;10.07;;;15.90;99.90;;;;;;6196826;28;20611;-72
2021/09/15 07:26:25;;;;;;;15.67;13.00;;;16.00;99.90;;;;;;6196556;28;20264;-72
2021/09/15 07:29:27;;;;;;;14.37;11.67;;;16.20;99.90;;;;;;6194692;28;20705;-72
2021/09/15 07:32:29;;;;;;;12.17;9.57;;;16.50;99.90;;;;;;6194893;28;20216;-72
2021/09/15 07:35:31;;;;;;;11.93;9.53;;;16.80;99.90;;;;;;6196205;28;20197;-72
2021/09/15 07:38:34;;;;;;;13.20;12.00;;;17.20;99.90;;;;;;6196092;28;20280;-72
2021/09/15 07:41:36;;;;;;;9.23;8.33;;;17.50;99.90;;;;;;6195852;28;20211;-72
2021/09/15 07:44:39;;;;;;;9.20;8.37;;;17.80;99.90;;;;;;6194519;28;20198;-72
2021/09/15 07:47:42;;;;;;;8.30;7.60;;;18.20;99.90;;;;;;6195789;28;20272;-72
2021/09/15 07:50:44;;;;;;;8.80;7.87;;;18.50;99.90;;;;;;6205435;28;20221;-72
2021/09/15 07:53:47;;;;;;;7.73;7.00;;;18.90;99.90;;;;;;6195893;28;20209;-72
2021/09/15 07:56:49;;;;;;;8.40;7.50;;;19.30;99.90;;;;;;6195839;28;20657;-72
2021/09/15 07:59:52;;;;;;;7.97;7.17;;;19.60;99.90;;;;;;6194774;28;20293;-72
2021/09/15 08:02:54;;;;;;;10.43;9.47;;;19.90;99.90;;;;;;6195425;28;20229;-72
2021/09/15 08:06:01;;;;;;;10.37;7.50;;;20.10;99.90;;;;;;6178294;28;20205;-72
2021/09/15 08:09:04;;;;;;;8.17;7.20;;;20.40;99.90;;;;;;6210442;28;20205;-72
2021/09/15 08:12:06;;;;;;;7.70;6.53;;;20.70;99.90;;;;;;6195411;28;20219;-72
2021/09/15 08:15:09;;;;;;;7.50;6.53;;;21.00;99.90;;;;;;6199475;28;20199;-72
2021/09/15 08:18:11;;;;;;;7.27;6.67;;;21.20;99.90;;;;;;6194211;28;20177;-72
2021/09/15 08:21:32;;;;;;;9.10;7.57;;;21.50;99.90;;;;;;6194565;28;20197;-71
2021/09/15 08:24:35;;;;;;;8.07;7.27;;;21.80;99.90;;;;;;6195283;28;20189;-71
2021/09/15 08:27:38;;;;;;;6.90;6.23;;;21.90;99.90;;;;;;6195023;28;20272;-71
2021/09/15 08:30:40;;;;;;;9.60;8.23;;;22.10;99.90;;;;;;6194110;28;20220;-71
2021/09/15 08:33:43;;;;;;;9.23;7.00;;;22.30;99.90;;;;;;6195075;28;20240;-71
2021/09/15 08:36:45;;;;;;;10.13;9.07;;;22.50;99.90;;;;;;6194922;28;20263;-72
2021/09/15 08:39:48;;;;;;;8.57;7.30;;;22.40;99.90;;;;;;6195238;28;20216;-71
2021/09/15 08:42:50;;;;;;;8.90;7.60;;;22.40;99.90;;;;;;6194969;28;20213;-71
2021/09/15 08:45:56;;;;;;;10.90;8.63;;;22.60;99.90;;;;;;6194996;28;20612;-72
2021/09/15 08:48:59;;;;;;;7.20;6.53;;;22.70;99.90;;;;;;6195349;28;20277;-71
2021/09/15 08:52:01;;;;;;;10.50;9.50;;;22.80;99.90;;;;;;6193449;28;20221;-72
2021/09/15 08:55:05;;;;;;;10.00;9.00;;;23.00;99.90;;;;;;6194849;28;20678;-71
2021/09/15 08:58:08;;;;;;;8.23;7.43;;;23.10;99.90;;;;;;6194954;28;20264;-71
2021/09/15 09:01:14;;;;;;;8.13;7.27;;;23.20;99.90;;;;;;6194209;28;20244;-71
2021/09/15 09:04:17;;;;;;;11.97;9.47;;;23.40;99.90;;;;;;6194291;28;20595;-71
2021/09/15 09:07:24;;;;;;;8.70;7.80;;;23.50;99.90;;;;;;6193497;28;20209;-71
2021/09/15 09:10:33;;;;;;;9.97;8.93;;;23.60;99.90;;;;;;6197998;28;20242;-71
2021/09/15 09:13:49;;;;;;;7.37;6.67;;;23.80;99.80;;;;;;6190421;28;20286;-71
2021/09/15 09:16:52;;;;;;;7.60;6.90;;;24.00;99.70;;;;;;6219923;28;20185;-71
2021/09/15 09:20:23;;;;;;;10.93;7.57;;;24.30;99.50;;;;;;6214262;28;20201;-71
2021/09/15 09:23:26;;;;;;;9.10;8.20;;;24.40;98.30;;;;;;6175781;28;20190;-71
2021/09/15 09:26:58;;;;;;;10.17;9.17;;;24.20;97.10;;;;;;6175216;28;20182;-72
2021/09/15 09:30:35;;;;;;;10.33;8.50;;;24.10;95.80;;;;;;6173639;28;20194;-71
2021/09/15 09:33:38;;;;;;;9.63;7.93;;;24.00;96.10;;;;;;6189816;28;20713;-71
2021/09/15 09:36:41;;;;;;;7.17;6.43;;;24.20;96.40;;;;;;6197987;28;20283;-71
2021/09/15 09:39:48;;;;;;;7.20;6.10;;;24.30;96.90;;;;;;6213964;28;20189;-71
2021/09/15 09:42:50;;;;;;;10.67;9.00;;;24.50;97.40;;;;;;6197149;28;20292;-71
2021/09/15 09:45:55;;;;;;;9.63;8.63;;;24.30;96.40;;;;;;6213642;28;20224;-71
2021/09/15 09:49:01;;;;;;;8.17;7.37;;;24.20;96.20;;;;;;6197381;28;20556;-71
2021/09/15 09:52:05;;;;;;;8.47;7.67;;;24.20;96.40;;;;;;6198806;28;20213;-71
2021/09/15 09:55:07;;;;;;;11.57;9.30;;;24.30;97.30;;;;;;6213449;28;20275;-72
2021/09/15 10:01:49;;;;;;;7.97;7.27;;;24.50;95.50;;;;;;6163150;28;20607;-85
2021/09/15 10:04:51;;;;;;;8.70;7.80;;;24.60;96.60;;;;;;6150340;29;20199;-85
2021/09/15 10:07:54;;;;;;;9.53;8.13;;;24.70;96.10;;;;;;6166385;28;20700;-85
2021/09/15 10:10:56;;;;;;;12.20;8.80;;;25.00;95.70;;;;;;6150679;28;20198;-85
2021/09/15 10:14:00;;;;;;;8.67;7.77;;;25.40;94.50;;;;;;6150242;28;20219;-85
2021/09/15 10:17:10;;;;;;;8.35;7.63;;;25.60;94.00;;;;;;6142394;28;20529;-85
2021/09/15 10:20:14;;;;;;;9.82;8.70;;;26.00;93.30;;;;;;6169320;28;20230;-85
2021/09/15 10:23:33;;;;;;;10.77;6.93;;;26.10;92.30;;;;;;6141724;28;20199;-85
2021/09/15 10:26:42;;;;;;;7.70;7.00;;;26.20;92.20;;;;;;6149506;28;20301;-85
2021/09/15 10:30:00;;;;;;;9.55;8.55;;;26.40;92.80;;;;;;6149922;28;20198;-86
2021/09/15 10:33:03;;;;;;;9.93;8.02;;;26.20;90.60;;;;;;6149777;28;20593;-85
2021/09/15 10:36:11;;;;;;;14.98;9.00;;;26.00;91.30;;;;;;6149533;28;20250;-85
2021/09/15 10:39:21;;;;;;;11.95;9.18;;;26.00;91.90;;;;;;6151026;28;20189;-85
2021/09/15 10:46:21;;;;;;;9.40;8.50;;;25.50;92.10;;;;;;6165713;28;20207;-85
2021/09/15 10:49:24;;;;;;;12.05;10.13;;;25.80;91.20;;;;;;6150654;28;20207;-85
2021/09/15 10:52:27;;;;;;;9.23;8.32;;;26.00;91.20;;;;;;6165223;28;20218;-85
2021/09/15 10:55:50;;;;;;;9.05;8.15;;;25.70;91.30;;;;;;6165142;28;20199;-85
2021/09/15 10:58:52;;;;;;;9.23;8.32;;;25.60;91.90;;;;;;6148834;28;20229;-85
2021/09/15 11:01:55;;;;;;;11.23;8.98;;;25.90;91.90;;;;;;6149124;28;20199;-85
2021/09/15 11:05:00;;;;;;;7.32;6.63;;;26.10;91.90;;;;;;6160816;28;20191;-85
2021/09/15 11:08:03;;;;;;;9.95;7.95;;;26.50;92.90;;;;;;6156273;28;20737;-85
2021/09/15 11:11:25;;;;;;;8.60;7.75;;;26.70;90.20;;;;;;6146275;28;20195;-85
2021/09/15 11:14:57;;;;;;;9.57;8.50;;;27.00;90.60;;;;;;6152561;28;20217;-85
2021/09/15 11:17:59;;;;;;;12.52;7.65;;;27.20;89.30;;;;;;6168311;28;20206;-85
2021/09/15 11:21:05;;;;;;;12.48;8.57;;;27.30;85.90;;;;;;6148656;28;20209;-85
2021/09/15 11:24:12;;;;;;;9.63;7.80;;;27.10;85.80;;;;;;6398990;23;20245;-80
2021/09/15 11:27:18;;;;;;;9.88;8.88;;;27.10;85.20;;;;;;6174429;28;20190;-80
2021/09/15 11:30:20;;;;;;;11.38;8.85;;;27.20;84.20;;;;;;6195008;28;20208;-81
2021/09/15 11:33:33;;;;;;;11.60;9.00;;;27.30;85.40;;;;;;6161619;28;20214;-81
2021/09/15 11:36:37;;;;;;;10.45;9.05;;;27.40;84.50;;;;;;6191197;28;20190;-80
2021/09/15 11:39:40;;;;;;;10.23;8.07;;;27.60;83.00;;;;;;6181025;28;20201;-80
2021/09/15 11:42:43;;;;;;;10.02;7.50;;;27.60;83.50;;;;;;6212923;28;20201;-80
2021/09/15 11:45:48;;;;;;;11.68;7.70;;;27.70;82.40;;;;;;6197126;28;20296;-80
2021/09/15 11:48:51;;;;;;;9.40;8.27;;;27.90;82.50;;;;;;6197143;28;20198;-80
2021/09/15 11:52:02;;;;;;;9.48;8.50;;;28.20;80.50;;;;;;6180590;28;20244;-81
2021/09/15 11:55:10;;;;;;;8.32;7.20;;;28.20;79.00;;;;;;6196884;28;20184;-81
2021/09/15 11:58:12;;;;;;;9.70;8.27;;;28.20;80.70;;;;;;6196932;28;20296;-80
2021/09/15 12:01:16;;;;;;;10.30;7.75;;;28.40;77.80;;;;;;6196667;28;20683;-81
2021/09/15 12:04:21;;;;;;;10.63;7.50;;;28.60;78.10;;;;;;6212663;28;20212;-80
2021/09/15 12:07:24;;;;;;;11.60;8.57;;;28.60;78.30;;;;;;6180569;28;20215;-80
2021/09/15 12:10:27;;;;;;;9.10;7.78;;;28.60;75.40;;;;;;6184789;28;20692;-81
2021/09/15 12:13:34;;;;;;;8.07;7.07;;;28.50;75.50;;;;;;6196502;28;20240;-80
2021/09/15 12:16:40;;;;;;;9.45;7.32;;;28.60;75.10;;;;;;6196437;28;20200;-81
2021/09/15 12:19:55;;;;;;;9.15;7.68;;;29.00;76.60;;;;;;6180918;28;20276;-81
2021/09/15 12:22:58;;;;;;;8.45;6.82;;;29.40;73.20;;;;;;6196045;28;20245;-81
2021/09/15 12:26:02;;;;;;;8.65;7.28;;;29.40;74.20;;;;;;6212720;28;20607;-81
2021/09/15 12:29:27;;;;;;;7.72;6.82;;;29.40;71.50;;;;;;6199078;28;20275;-81
2021/09/15 12:32:59;;;;;;;9.48;6.70;;;29.60;71.30;;;;;;6171396;28;20226;-81
2021/09/15 12:36:19;;;;;;;11.25;7.68;;;30.10;70.00;;;;;;6195143;28;20657;-80
2021/09/15 12:39:22;;;;;;;9.35;6.72;;;29.80;66.70;;;;;;6196056;28;20550;-81
2021/09/15 12:42:31;;;;;;;7.80;5.80;;;29.80;70.50;;;;;;6196019;28;20290;-81
2021/09/15 12:45:37;;;;;;;8.70;6.63;;;30.10;69.20;;;;;;6183211;28;20743;-81
2021/09/15 12:48:39;;;;;;;7.43;6.50;;;30.30;67.80;;;;;;6190137;28;20649;-81
2021/09/15 12:51:42;;;;;;;7.97;6.95;;;30.60;68.30;;;;;;6202226;28;20564;-81
2021/09/15 12:54:54;;;;;;;7.32;6.63;;;30.80;65.30;;;;;;6200577;28;20213;-81
2021/09/15 12:58:04;;;;;;;12.32;6.88;;;31.20;65.10;;;;;;6200722;28;20252;-81
2021/09/15 13:01:07;;;;;;;7.43;6.20;;;31.50;63.00;;;;;;6200674;28;20189;-81
2021/09/15 13:04:10;;;;;;;6.88;6.22;;;31.80;61.50;;;;;;6201181;28;20276;-81
2021/09/15 13:07:16;;;;;;;6.28;5.53;;;32.10;59.70;;;;;;6216817;28;20212;-81
2021/09/15 13:10:19;;;;;;;7.88;5.75;;;32.10;57.20;;;;;;6184241;28;20677;-81
2021/09/15 13:13:24;;;;;;;6.22;5.45;;;32.00;58.00;;;;;;6201622;28;20297;-81
2021/09/15 13:16:27;;;;;;;9.25;5.38;;;32.10;56.70;;;;;;6200426;28;20545;-81
2021/09/15 13:19:29;;;;;;;9.93;6.43;;;32.00;58.40;;;;;;6200357;28;20193;-81
2021/09/15 13:22:32;;;;;;;7.85;5.80;;;32.40;56.20;;;;;;6201537;28;20215;-81
2021/09/15 13:25:36;;;;;;;7.40;5.10;;;32.70;55.20;;;;;;6215916;28;20660;-81
2021/09/15 13:28:39;;;;;;;7.22;5.93;;;32.80;54.40;;;;;;6200072;28;20566;-81
2021/09/15 13:31:42;;;;;;;7.13;5.90;;;32.70;54.00;;;;;;6200200;28;20201;-81
2021/09/15 13:34:45;;;;;;;5.70;5.20;;;32.70;54.20;;;;;;6199940;28;20223;-81
2021/09/15 13:37:48;;;;;;;6.53;5.80;;;33.00;54.00;;;;;;6199843;28;20189;-81
2021/09/15 13:40:51;;;;;;;6.28;5.68;;;33.30;56.00;;;;;;6199619;28;20661;-81
2021/09/15 13:43:53;;;;;;;7.43;5.63;;;32.90;54.80;;;;;;6200879;28;20201;-81
2021/09/15 13:46:56;;;;;;;8.32;5.75;;;32.60;54.20;;;;;;6199585;28;20208;-81
2021/09/15 13:49:59;;;;;;;7.05;5.63;;;32.40;55.80;;;;;;6215833;28;20566;-81
2021/09/15 13:53:02;;;;;;;6.55;5.30;;;32.30;56.80;;;;;;6199438;28;20213;-81
2021/09/15 13:56:05;;;;;;;7.40;6.07;;;32.00;56.40;;;;;;6198691;28;20321;-81
2021/09/15 13:59:07;;;;;;;7.60;5.30;;;31.50;56.10;;;;;;6199501;28;20652;-81
2021/09/15 14:02:11;;;;;;;6.75;6.00;;;31.10;58.50;;;;;;6199386;28;20201;-81
2021/09/15 14:05:13;;;;;;;7.03;5.18;;;30.80;61.30;;;;;;6181261;28;20554;-81
2021/09/15 14:08:16;;;;;;;6.93;5.45;;;30.50;61.80;;;;;;6175776;28;20208;-81
2021/09/15 14:11:20;;;;;;;8.82;6.38;;;30.20;64.20;;;;;;6199187;28;20538;-81
2021/09/15 14:14:22;;;;;;;7.20;5.50;;;30.00;65.40;;;;;;6200244;28;20220;-81
2021/09/15 14:17:25;;;;;;;6.53;5.55;;;29.70;66.70;;;;;;6200293;28;20200;-81
2021/09/15 14:20:28;;;;;;;8.93;6.25;;;29.50;68.60;;;;;;6215044;28;20269;-81
2021/09/15 14:23:31;;;;;;;7.72;5.50;;;29.40;68.20;;;;;;6214829;28;20231;-81
2021/09/15 14:26:34;;;;;;;7.20;5.63;;;29.20;70.30;;;;;;6198923;28;20284;-81
2021/09/15 14:29:37;;;;;;;6.15;5.55;;;29.00;71.80;;;;;;6200172;28;20197;-81
2021/09/15 14:32:41;;;;;;;7.88;5.97;;;29.00;72.50;;;;;;6182606;28;20205;-81
2021/09/15 14:35:44;;;;;;;5.97;5.47;;;28.70;73.10;;;;;;6188256;28;20209;-81
2021/09/15 14:38:47;;;;;;;6.72;5.90;;;28.50;73.60;;;;;;6207260;28;20679;-81
2021/09/15 14:41:49;;;;;;;6.57;5.80;;;28.40;74.90;;;;;;6199716;28;20189;-80
2021/09/15 14:44:52;;;;;;;7.20;5.88;;;28.20;76.10;;;;;;6198382;28;20197;-81
2021/09/15 14:47:54;;;;;;;6.38;5.80;;;28.10;77.30;;;;;;6181977;28;20205;-81
2021/09/15 14:50:57;;;;;;;7.15;6.07;;;28.00;78.60;;;;;;6198307;28;20201;-81
2021/09/15 14:54:00;;;;;;;7.15;5.85;;;28.00;79.30;;;;;;6197971;28;20591;-80
2021/09/15 14:57:11;;;;;;;6.88;6.28;;;27.80;79.50;;;;;;6213937;28;20207;-81
2021/09/15 15:00:14;;;;;;;6.30;5.70;;;27.70;81.30;;;;;;6197703;28;20190;-81
2021/09/15 15:03:17;;;;;;;6.35;5.40;;;27.60;81.30;;;;;;6183053;28;20571;-81
2021/09/15 15:06:19;;;;;;;7.00;5.85;;;27.50;81.80;;;;;;6201372;28;20712;-80
2021/09/15 15:09:22;;;;;;;7.95;5.93;;;27.30;83.30;;;;;;6213791;28;20287;-81
2021/09/15 15:12:25;;;;;;;7.78;6.43;;;27.30;83.90;;;;;;6197722;28;20201;-81
2021/09/15 15:15:28;;;;;;;8.52;6.15;;;27.10;85.30;;;;;;6206523;28;20677;-81
2021/09/15 15:18:31;;;;;;;6.95;6.25;;;27.00;86.00;;;;;;6197543;28;20665;-81
2021/09/15 15:21:33;;;;;;;7.15;6.45;;;26.90;85.10;;;;;;6213642;28;20208;-81
2021/09/15 15:24:36;;;;;;;7.97;5.90;;;26.80;86.00;;;;;;6198140;28;20288;-80
2021/09/15 15:27:44;;;;;;;8.52;6.15;;;26.70;87.70;;;;;;6213821;28;20208;-81
2021/09/15 15:30:48;;;;;;;6.43;5.88;;;26.60;88.80;;;;;;6197328;28;20671;-81
2021/09/15 15:33:51;;;;;;;6.75;6.13;;;26.40;89.60;;;;;;6196969;28;20381;-80
2021/09/15 15:36:54;;;;;;;7.97;7.03;;;26.30;90.20;;;;;;6196835;28;20216;-80
2021/09/15 15:39:58;;;;;;;8.65;6.57;;;26.10;90.60;;;;;;6197238;28;20692;-80
2021/09/15 15:43:00;;;;;;;7.13;6.53;;;26.00;91.20;;;;;;6197029;28;20194;-80
2021/09/15 15:46:03;;;;;;;8.27;6.40;;;25.90;91.50;;;;;;6180895;28;20201;-81
2021/09/15 15:49:06;;;;;;;7.32;6.63;;;25.80;91.80;;;;;;6213217;28;20196;-80
2021/09/15 15:52:10;;;;;;;10.32;5.85;;;25.70;92.20;;;;;;6213144;28;20201;-80
2021/09/15 15:55:13;;;;;;;8.43;6.80;;;25.60;92.50;;;;;;6198048;28;20209;-80
2021/09/15 15:58:16;;;;;;;8.63;6.40;;;25.50;92.70;;;;;;6196640;28;20193;-81
2021/09/15 16:01:19;;;;;;;10.75;7.18;;;25.50;93.10;;;;;;6186187;28;20209;-80
2021/09/15 16:04:22;;;;;;;8.93;6.65;;;25.30;93.50;;;;;;6172600;28;20284;-80
2021/09/15 16:07:25;;;;;;;7.22;6.50;;;25.20;94.00;;;;;;6176107;28;20198;-80
2021/09/15 16:10:29;;;;;;;8.85;6.68;;;25.00;94.30;;;;;;6196631;28;20580;-80
2021/09/15 16:13:31;;;;;;;7.93;7.15;;;24.90;94.80;;;;;;6196222;28;20292;-81